Time;durP1;ratioP1;P1;durP2;ratioP2;P2;SDS_P1;SDS_P2;PMS_P1;PMS_P2;Temp;Humidity;BMP_temperature;BMP_pressure;BME280_temperature;BME280_humidity;BME280_pressure;Samples;Min_cycle;Max_cycle;Signal;HPM_P1;HPM_P2
2020/12/21 00:00:47;;;;;;;99.73;55.30;;;;;;;;;;6249220;23;20984;-95
2020/12/21 00:03:13;;;;;;;83.03;51.10;;;;;;;;;;6253198;23;20401;-94
2020/12/21 00:05:39;;;;;;;88.83;55.20;;;;;;;;;;6253252;23;20443;-95
2020/12/21 00:08:05;;;;;;;93.27;55.07;;;;;;;;;;6255155;23;20439;-95
2020/12/21 00:10:31;;;;;;;90.13;51.93;;;;;;;;;;6257106;23;20464;-94
2020/12/21 00:12:58;;;;;;;92.00;55.07;;;;;;;;;;6255659;23;20406;-95
2020/12/21 00:15:24;;;;;;;93.63;55.23;;;;;;;;;;6256636;23;20416;-92
2020/12/21 00:17:50;;;;;;;91.60;53.67;;;;;;;;;;6255928;23;20410;-92
2020/12/21 00:20:16;;;;;;;95.17;56.43;;;;;;;;;;6256869;23;20417;-92
2020/12/21 00:22:42;;;;;;;99.97;56.63;;;;;;;;;;6254569;23;20720;-93
2020/12/21 00:25:08;;;;;;;101.27;57.13;;;;;;;;;;6255173;23;20424;-91
2020/12/21 00:27:34;;;;;;;90.73;53.03;;;;;;;;;;6254530;23;20405;-92
2020/12/21 00:30:01;;;;;;;86.87;52.10;;;;;;;;;;6256672;23;20462;-92
2020/12/21 00:32:27;;;;;;;87.78;50.25;;;;;;;;;;6255426;23;20449;-92
2020/12/21 00:34:53;;;;;;;73.90;45.47;;;;;;;;;;6255979;23;20186;-92
2020/12/21 00:37:19;;;;;;;86.47;48.20;;;;;;;;;;6256962;23;20407;-92
2020/12/21 00:39:45;;;;;;;76.83;44.63;;;;;;;;;;6254040;23;20401;-92
2020/12/21 00:42:11;;;;;;;87.50;46.47;;;;;;;;;;6256717;23;20433;-92
2020/12/21 00:44:37;;;;;;;75.53;47.53;;;;;;;;;;6256880;23;20411;-93
2020/12/21 00:47:04;;;;;;;70.70;44.30;;;;;;;;;;6258082;23;20418;-92
2020/12/21 00:49:30;;;;;;;70.27;42.57;;;;;;;;;;6255971;23;20453;-93
2020/12/21 00:51:56;;;;;;;70.27;41.10;;;;;;;;;;6257754;23;20405;-92
2020/12/21 00:54:22;;;;;;;69.37;38.60;;;;;;;;;;6257794;23;20432;-96
2020/12/21 00:56:48;;;;;;;67.10;39.07;;;;;;;;;;6257417;23;20414;-95
2020/12/21 00:59:14;;;;;;;77.43;42.00;;;;;;;;;;6256585;23;20410;-92
2020/12/21 01:01:40;;;;;;;71.30;42.73;;;;;;;;;;6255637;23;20416;-94
2020/12/21 01:04:07;;;;;;;70.33;39.60;;;;;;;;;;6258467;23;20414;-95
2020/12/21 01:06:33;;;;;;;70.00;39.10;;;;;;;;;;6256884;23;20410;-94
2020/12/21 01:09:00;;;;;;;69.97;35.77;;;;;;;;;;6257638;23;20441;-93
2020/12/21 01:11:28;;;;;;;68.53;38.20;;;;;;;;;;6260986;23;20421;-94
2020/12/21 01:13:54;;;;;;;65.13;38.60;;;;;;;;;;6258092;23;20416;-94
2020/12/21 01:16:21;;;;;;;66.73;34.97;;;;;;;;;;6257746;23;20472;-93
2020/12/21 01:18:47;;;;;;;61.30;34.50;;;;;;;;;;6255590;23;20480;-93
2020/12/21 01:21:22;;;;;;;55.30;32.43;;;;;;;;;;6257499;23;20876;-94
2020/12/21 01:23:48;;;;;;;61.43;34.07;;;;;;;;;;6255984;23;20416;-93
2020/12/21 01:26:14;;;;;;;57.57;32.50;;;;;;;;;;6257726;23;20406;-94
2020/12/21 01:28:40;;;;;;;64.23;35.10;;;;;;;;;;6254559;23;20456;-93
2020/12/21 01:31:06;;;;;;;57.90;31.90;;;;;;;;;;6256914;23;20432;-94
2020/12/21 01:33:32;;;;;;;55.10;32.10;;;;;;;;;;6253595;23;20463;-93
2020/12/21 01:35:58;;;;;;;58.13;32.20;;;;;;;;;;6255506;22;20414;-94
2020/12/21 01:38:25;;;;;;;68.70;35.37;;;;;;;;;;6257145;23;20417;-94
2020/12/21 01:40:51;;;;;;;63.53;34.07;;;;;;;;;;6259284;23;20402;-94
2020/12/21 01:43:17;;;;;;;66.50;35.90;;;;;;;;;;6269053;22;20398;-93
2020/12/21 01:45:43;;;;;;;54.50;31.83;;;;;;;;;;6259580;23;20410;-95
2020/12/21 01:48:09;;;;;;;59.20;34.00;;;;;;;;;;6255418;23;21109;-94
2020/12/21 01:50:35;;;;;;;62.30;35.73;;;;;;;;;;6253532;23;20449;-93
2020/12/21 01:53:02;;;;;;;56.53;33.33;;;;;;;;;;6256458;23;20406;-93
2020/12/21 01:55:30;;;;;;;61.30;34.50;;;;;;;;;;6255291;23;20948;-93
2020/12/21 01:57:56;;;;;;;60.93;33.83;;;;;;;;;;6255748;23;20410;-93
2020/12/21 02:00:22;;;;;;;60.40;35.83;;;;;;;;;;6256713;23;20428;-94
2020/12/21 02:02:48;;;;;;;58.67;34.47;;;;;;;;;;6255070;23;20475;-93
2020/12/21 02:05:14;;;;;;;59.13;33.60;;;;;;;;;;6256119;23;20418;-94
2020/12/21 02:07:40;;;;;;;61.43;34.30;;;;;;;;;;6253905;23;20406;-94
2020/12/21 02:10:06;;;;;;;65.33;33.33;;;;;;;;;;6256877;23;20508;-94
2020/12/21 02:12:33;;;;;;;58.10;32.73;;;;;;;;;;6255225;23;20410;-93
2020/12/21 02:14:59;;;;;;;65.57;35.27;;;;;;;;;;6256137;23;20417;-93
2020/12/21 02:17:25;;;;;;;56.23;33.30;;;;;;;;;;6254912;23;20425;-94
2020/12/21 02:19:51;;;;;;;65.97;35.20;;;;;;;;;;6257697;23;20418;-94
2020/12/21 02:22:18;;;;;;;67.67;36.67;;;;;;;;;;6256163;23;20414;-93
2020/12/21 02:24:44;;;;;;;59.60;33.20;;;;;;;;;;6255650;23;20421;-93
2020/12/21 02:27:10;;;;;;;68.23;34.73;;;;;;;;;;6255991;23;20410;-94
2020/12/21 02:29:36;;;;;;;58.40;33.97;;;;;;;;;;6255794;23;20475;-93
2020/12/21 02:32:03;;;;;;;65.60;34.50;;;;;;;;;;6255629;23;20445;-93
2020/12/21 02:34:29;;;;;;;64.37;35.00;;;;;;;;;;6254502;23;20405;-93
2020/12/21 02:36:55;;;;;;;64.77;34.47;;;;;;;;;;6256394;23;20410;-94
2020/12/21 02:39:23;;;;;;;63.40;33.33;;;;;;;;;;6256439;23;20417;-94
2020/12/21 02:41:49;;;;;;;60.03;34.40;;;;;;;;;;6257115;23;20405;-94
2020/12/21 02:44:15;;;;;;;56.73;33.57;;;;;;;;;;6254601;23;20440;-93
2020/12/21 02:46:42;;;;;;;65.93;33.43;;;;;;;;;;6252743;23;20427;-94
2020/12/21 02:49:08;;;;;;;55.30;29.03;;;;;;;;;;6255614;23;20445;-94
2020/12/21 02:51:34;;;;;;;53.07;30.60;;;;;;;;;;6254167;23;20420;-93
2020/12/21 02:54:00;;;;;;;66.93;35.27;;;;;;;;;;6257588;23;20410;-94
2020/12/21 02:56:27;;;;;;;58.60;32.27;;;;;;;;;;6255750;23;20410;-93
2020/12/21 02:58:53;;;;;;;65.40;33.33;;;;;;;;;;6259603;23;20406;-94
2020/12/21 03:01:19;;;;;;;63.63;34.73;;;;;;;;;;6256273;23;20421;-93
2020/12/21 03:03:45;;;;;;;59.23;32.60;;;;;;;;;;6255699;23;20975;-93
2020/12/21 03:06:11;;;;;;;62.00;32.87;;;;;;;;;;6256912;23;20412;-93
2020/12/21 03:08:37;;;;;;;59.67;32.67;;;;;;;;;;6254219;23;20406;-93
2020/12/21 03:11:07;;;;;;;58.30;31.40;;;;;;;;;;6255830;23;20452;-93
2020/12/21 03:13:34;;;;;;;54.20;32.20;;;;;;;;;;6255056;23;20414;-93
2020/12/21 03:16:00;;;;;;;54.03;29.83;;;;;;;;;;6255227;23;20422;-93
2020/12/21 03:18:26;;;;;;;54.87;31.43;;;;;;;;;;6255252;23;20405;-93
2020/12/21 03:20:52;;;;;;;62.07;30.67;;;;;;;;;;6255883;23;20417;-94
2020/12/21 03:23:18;;;;;;;52.20;28.80;;;;;;;;;;6254801;23;20406;-93
2020/12/21 03:25:44;;;;;;;56.00;28.43;;;;;;;;;;6256491;23;20736;-92
2020/12/21 03:28:10;;;;;;;51.90;30.17;;;;;;;;;;6256742;23;20402;-93
2020/12/21 03:30:37;;;;;;;51.67;29.47;;;;;;;;;;6256281;23;20449;-93
2020/12/21 03:33:03;;;;;;;58.73;31.20;;;;;;;;;;6262826;23;20456;-92
2020/12/21 03:35:29;;;;;;;55.20;32.03;;;;;;;;;;6264324;23;20412;-94
2020/12/21 03:37:55;;;;;;;55.07;33.10;;;;;;;;;;6256250;23;20412;-94
2020/12/21 03:40:21;;;;;;;51.77;29.40;;;;;;;;;;6254747;23;20409;-93
2020/12/21 03:42:47;;;;;;;46.20;28.00;;;;;;;;;;6258241;23;20405;-93
2020/12/21 03:45:13;;;;;;;51.67;26.23;;;;;;;;;;6257820;23;20444;-92
2020/12/21 03:47:40;;;;;;;52.97;26.40;;;;;;;;;;6258259;23;20422;-94
2020/12/21 03:50:06;;;;;;;51.07;25.60;;;;;;;;;;6257393;23;20448;-93
2020/12/21 03:52:32;;;;;;;55.67;28.30;;;;;;;;;;6255731;23;20406;-94
2020/12/21 03:54:58;;;;;;;49.13;27.33;;;;;;;;;;6259069;23;20462;-94
2020/12/21 03:57:24;;;;;;;50.77;25.50;;;;;;;;;;6257258;23;20910;-93
2020/12/21 03:59:50;;;;;;;48.27;25.90;;;;;;;;;;6258475;23;20437;-94
2020/12/21 04:02:16;;;;;;;44.60;25.80;;;;;;;;;;6256741;23;20426;-93
2020/12/21 04:04:43;;;;;;;57.40;27.47;;;;;;;;;;6258228;23;20406;-94
2020/12/21 04:07:09;;;;;;;52.30;27.87;;;;;;;;;;6257968;23;20926;-94
2020/12/21 04:09:35;;;;;;;57.40;27.77;;;;;;;;;;6257539;23;20477;-93
2020/12/21 04:12:01;;;;;;;50.33;26.83;;;;;;;;;;6257226;23;20989;-93
2020/12/21 04:14:27;;;;;;;50.17;27.70;;;;;;;;;;6257000;23;20536;-93
2020/12/21 04:16:54;;;;;;;54.43;28.10;;;;;;;;;;6258730;23;20409;-94
2020/12/21 04:19:19;;;;;;;53.50;27.80;;;;;;;;;;6256662;23;20899;-93
2020/12/21 04:21:46;;;;;;;55.63;27.97;;;;;;;;;;6257251;23;20410;-94
2020/12/21 04:24:12;;;;;;;59.93;28.60;;;;;;;;;;6255988;23;20474;-94
2020/12/21 04:26:38;;;;;;;49.20;27.23;;;;;;;;;;6258218;23;20408;-92
2020/12/21 04:29:04;;;;;;;50.83;28.77;;;;;;;;;;6256532;23;20406;-93
2020/12/21 04:31:30;;;;;;;51.83;28.23;;;;;;;;;;6257057;23;21239;-94
2020/12/21 04:33:57;;;;;;;52.50;28.60;;;;;;;;;;6258251;23;20416;-93
2020/12/21 04:36:23;;;;;;;51.33;28.17;;;;;;;;;;6230327;23;20413;-93
2020/12/21 04:38:53;;;;;;;63.10;31.17;;;;;;;;;;6257088;23;20419;-94
2020/12/21 04:41:19;;;;;;;50.67;28.70;;;;;;;;;;6255457;23;20649;-93
2020/12/21 04:43:45;;;;;;;48.37;27.20;;;;;;;;;;6257612;23;20421;-94
2020/12/21 04:46:11;;;;;;;52.33;29.97;;;;;;;;;;6255873;23;20414;-93
2020/12/21 04:48:38;;;;;;;53.70;29.97;;;;;;;;;;6262494;23;20420;-93
2020/12/21 04:51:04;;;;;;;53.57;30.27;;;;;;;;;;6255578;23;20479;-93
2020/12/21 04:53:30;;;;;;;52.07;29.67;;;;;;;;;;6257077;23;20408;-93
2020/12/21 04:55:57;;;;;;;58.37;34.00;;;;;;;;;;6257113;23;20452;-94
2020/12/21 04:58:23;;;;;;;60.63;31.60;;;;;;;;;;6257066;23;20418;-94
2020/12/21 05:00:49;;;;;;;54.00;29.53;;;;;;;;;;6257660;23;20460;-94
2020/12/21 05:03:15;;;;;;;52.13;28.37;;;;;;;;;;6256879;23;20500;-95
2020/12/21 05:05:42;;;;;;;60.25;30.08;;;;;;;;;;6258455;23;20432;-94
2020/12/21 05:08:09;;;;;;;52.40;27.58;;;;;;;;;;6256773;23;20182;-94
2020/12/21 05:10:35;;;;;;;51.83;26.67;;;;;;;;;;6257273;23;20198;-94
2020/12/21 05:13:02;;;;;;;62.83;29.00;;;;;;;;;;6255316;23;20413;-94
2020/12/21 05:15:29;;;;;;;52.60;25.33;;;;;;;;;;6256726;23;20418;-94
2020/12/21 05:18:05;;;;;;;48.95;25.88;;;;;;;;;;6256862;23;20733;-93
2020/12/21 05:20:31;;;;;;;57.37;26.83;;;;;;;;;;6258239;23;20178;-94
2020/12/21 05:22:57;;;;;;;53.07;25.10;;;;;;;;;;6258826;23;20607;-93
2020/12/21 05:25:23;;;;;;;46.73;24.80;;;;;;;;;;6269155;22;20404;-94
2020/12/21 05:27:49;;;;;;;50.73;26.70;;;;;;;;;;6260839;22;20924;-94
2020/12/21 05:30:16;;;;;;;44.10;25.87;;;;;;;;;;6253019;23;20487;-94
2020/12/21 05:32:42;;;;;;;47.97;28.23;;;;;;;;;;6255224;23;20440;-94
2020/12/21 05:35:09;;;;;;;57.73;28.47;;;;;;;;;;6255313;23;20414;-94
2020/12/21 05:37:35;;;;;;;54.03;25.80;;;;;;;;;;6256762;23;20413;-93
2020/12/21 05:40:01;;;;;;;45.83;24.90;;;;;;;;;;6256105;23;21103;-94
2020/12/21 05:42:27;;;;;;;56.40;26.97;;;;;;;;;;6256522;23;20918;-94
2020/12/21 05:44:54;;;;;;;55.83;26.00;;;;;;;;;;6229619;23;20426;-94
2020/12/21 05:47:22;;;;;;;55.73;28.70;;;;;;;;;;6255785;23;20415;-93
2020/12/21 05:49:55;;;;;;;57.90;30.07;;;;;;;;;;6257163;23;20974;-93
2020/12/21 05:52:39;;;;;;;56.28;27.90;;;;;;;;;;6254540;23;20483;-94
2020/12/21 05:55:06;;;;;;;57.47;30.37;;;;;;;;;;6256086;23;20186;-95
2020/12/21 05:57:33;;;;;;;56.43;29.43;;;;;;;;;;6222251;23;20416;-94
2020/12/21 06:00:02;;;;;;;67.50;32.97;;;;;;;;;;6220146;23;21052;-94
2020/12/21 06:02:31;;;;;;;60.90;32.53;;;;;;;;;;6246435;23;20273;-94
2020/12/21 06:05:01;;;;;;;61.90;35.43;;;;;;;;;;6248086;23;20182;-95
2020/12/21 06:07:29;;;;;;;63.33;31.40;;;;;;;;;;6248348;23;20417;-93
2020/12/21 06:09:57;;;;;;;60.70;32.50;;;;;;;;;;6245875;23;20453;-94
2020/12/21 06:12:23;;;;;;;66.27;34.70;;;;;;;;;;6250279;23;20402;-94
2020/12/21 06:14:51;;;;;;;67.53;35.40;;;;;;;;;;6253026;23;20410;-94
2020/12/21 06:17:17;;;;;;;78.43;39.80;;;;;;;;;;6254965;23;20410;-94
2020/12/21 06:19:44;;;;;;;82.37;42.50;;;;;;;;;;6254378;23;20176;-94
2020/12/21 06:22:10;;;;;;;79.53;43.10;;;;;;;;;;6230307;23;20407;-94
2020/12/21 06:24:37;;;;;;;71.20;37.87;;;;;;;;;;6255368;23;20436;-94
2020/12/21 06:27:12;;;;;;;65.67;35.50;;;;;;;;;;6257422;23;20416;-94
2020/12/21 06:29:38;;;;;;;64.32;34.72;;;;;;;;;;6254725;23;20468;-93
2020/12/21 06:32:05;;;;;;;72.33;34.50;;;;;;;;;;6256310;23;20201;-94
2020/12/21 06:34:32;;;;;;;65.73;36.13;;;;;;;;;;6255994;23;20489;-94
2020/12/21 06:37:00;;;;;;;75.60;37.50;;;;;;;;;;6255017;23;20843;-93
2020/12/21 06:39:26;;;;;;;70.63;35.80;;;;;;;;;;6253767;23;20421;-95
2020/12/21 06:42:00;;;;;;;62.10;35.00;;;;;;;;;;6252257;23;20410;-93
2020/12/21 06:44:28;;;;;;;63.60;32.57;;;;;;;;;;6255783;23;20406;-94
2020/12/21 06:46:54;;;;;;;59.90;30.40;;;;;;;;;;6253601;23;20420;-94
2020/12/21 06:49:20;;;;;;;56.40;30.20;;;;;;;;;;6257901;23;20406;-94
2020/12/21 06:51:47;;;;;;;56.20;28.57;;;;;;;;;;6255309;23;20414;-94
2020/12/21 06:54:16;;;;;;;56.87;29.30;;;;;;;;;;6257297;23;20417;-94
2020/12/21 06:56:42;;;;;;;60.03;31.50;;;;;;;;;;6255832;23;20410;-93
2020/12/21 06:59:09;;;;;;;63.23;29.53;;;;;;;;;;6227688;23;20440;-94
2020/12/21 07:01:35;;;;;;;50.63;28.93;;;;;;;;;;6256916;23;20441;-94
2020/12/21 07:04:02;;;;;;;52.77;28.97;;;;;;;;;;6253254;23;20423;-93
2020/12/21 07:06:28;;;;;;;59.27;29.93;;;;;;;;;;6255123;23;20417;-93
2020/12/21 07:08:57;;;;;;;56.33;28.70;;;;;;;;;;6252342;23;20413;-93
2020/12/21 07:11:25;;;;;;;54.40;28.90;;;;;;;;;;6254792;23;20450;-94
2020/12/21 07:13:51;;;;;;;57.90;29.33;;;;;;;;;;6256764;23;20402;-95
2020/12/21 07:16:18;;;;;;;56.53;30.07;;;;;;;;;;6261889;23;20488;-94
2020/12/21 07:18:44;;;;;;;59.07;28.47;;;;;;;;;;6259554;23;20410;-94
2020/12/21 07:21:10;;;;;;;54.90;29.87;;;;;;;;;;6255587;23;20460;-94
2020/12/21 07:23:37;;;;;;;61.73;29.63;;;;;;;;;;6254414;23;20406;-94
2020/12/21 07:26:03;;;;;;;60.90;31.23;;;;;;;;;;6252551;23;20429;-94
2020/12/21 07:28:30;;;;;;;59.53;31.27;;;;;;;;;;6252733;23;20412;-94
2020/12/21 07:31:06;;;;;;;73.00;39.70;;;;;;;;;;6252499;23;20445;-94
2020/12/21 07:33:33;;;;;;;66.83;37.53;;;;;;;;;;6254001;23;20413;-93
2020/12/21 07:35:59;;;;;;;61.27;33.67;;;;;;;;;;6251800;23;20406;-94
2020/12/21 07:38:25;;;;;;;54.63;30.00;;;;;;;;;;6255463;23;20421;-94
2020/12/21 07:40:51;;;;;;;55.00;29.20;;;;;;;;;;6255719;23;20436;-94
2020/12/21 07:43:21;;;;;;;54.30;29.70;;;;;;;;;;6255022;23;20406;-94
2020/12/21 07:45:50;;;;;;;55.70;29.80;;;;;;;;;;6255616;23;20414;-95
2020/12/21 07:48:17;;;;;;;54.07;30.83;;;;;;;;;;6253832;23;20482;-94
2020/12/21 07:50:45;;;;;;;75.70;41.93;;;;;;;;;;6256611;23;20457;-93
2020/12/21 07:53:11;;;;;;;65.27;40.33;;;;;;;;;;6253701;23;20420;-95
2020/12/21 07:55:37;;;;;;;64.47;34.53;;;;;;;;;;6253924;23;20424;-94
2020/12/21 07:58:13;;;;;;;54.20;33.07;;;;;;;;;;6253496;23;20418;-94
2020/12/21 08:00:39;;;;;;;67.53;37.20;;;;;;;;;;6256522;23;20412;-95
2020/12/21 08:03:09;;;;;;;59.63;35.63;;;;;;;;;;6256455;23;20416;-94
2020/12/21 08:05:35;;;;;;;66.17;39.57;;;;;;;;;;6257009;23;20420;-94
2020/12/21 08:08:10;;;;;;;77.43;46.40;;;;;;;;;;6256064;23;20409;-94
2020/12/21 08:10:36;;;;;;;65.43;40.70;;;;;;;;;;6259735;23;20457;-93
2020/12/21 08:13:02;;;;;;;66.27;39.20;;;;;;;;;;6255427;23;20417;-94
2020/12/21 08:15:28;;;;;;;59.77;31.60;;;;;;;;;;6253412;23;20406;-94
2020/12/21 08:17:54;;;;;;;59.17;35.00;;;;;;;;;;6256150;23;20413;-94
2020/12/21 08:20:21;;;;;;;64.27;34.40;;;;;;;;;;6253671;23;20406;-94
2020/12/21 08:22:47;;;;;;;62.20;33.30;;;;;;;;;;6256133;23;20405;-94
2020/12/21 08:25:14;;;;;;;62.30;33.50;;;;;;;;;;6259779;23;20410;-95
2020/12/21 08:27:42;;;;;;;65.17;34.97;;;;;;;;;;6255711;23;20766;-93
2020/12/21 08:30:09;;;;;;;57.53;33.57;;;;;;;;;;6257009;23;20457;-94
2020/12/21 08:32:35;;;;;;;60.83;32.87;;;;;;;;;;6257076;23;20433;-93
2020/12/21 08:35:01;;;;;;;53.77;30.80;;;;;;;;;;6257776;23;20410;-94
2020/12/21 08:37:28;;;;;;;59.83;33.50;;;;;;;;;;6258368;23;20413;-92
2020/12/21 08:39:54;;;;;;;55.13;29.40;;;;;;;;;;6260038;23;20405;-94
2020/12/21 08:42:20;;;;;;;48.93;26.93;;;;;;;;;;6260027;23;20409;-93
2020/12/21 08:44:49;;;;;;;48.70;27.10;;;;;;;;;;6260239;23;20413;-93
2020/12/21 08:47:15;;;;;;;48.27;26.93;;;;;;;;;;6258493;23;20441;-93
2020/12/21 08:49:41;;;;;;;43.50;27.20;;;;;;;;;;6258043;23;20438;-94
2020/12/21 08:52:07;;;;;;;48.60;27.93;;;;;;;;;;6255497;23;20413;-94
2020/12/21 08:54:34;;;;;;;46.33;25.83;;;;;;;;;;6256575;23;20903;-94
2020/12/21 08:57:00;;;;;;;48.40;28.17;;;;;;;;;;6257540;23;20405;-94
2020/12/21 08:59:26;;;;;;;44.27;26.93;;;;;;;;;;6257259;23;20414;-94
2020/12/21 09:01:52;;;;;;;47.63;27.03;;;;;;;;;;6265170;23;20409;-94
2020/12/21 09:04:18;;;;;;;44.90;26.27;;;;;;;;;;6260694;23;20417;-95
2020/12/21 09:06:44;;;;;;;49.77;26.63;;;;;;;;;;6254293;23;20413;-94
2020/12/21 09:09:11;;;;;;;40.77;24.73;;;;;;;;;;6256707;23;20416;-95
2020/12/21 09:11:38;;;;;;;45.90;26.10;;;;;;;;;;6257295;23;20453;-94
2020/12/21 09:14:04;;;;;;;46.17;25.17;;;;;;;;;;6254417;23;20413;-94
2020/12/21 09:16:30;;;;;;;40.40;23.27;;;;;;;;;;6257032;23;20430;-94
2020/12/21 09:18:57;;;;;;;38.03;22.30;;;;;;;;;;6257826;23;20406;-95
2020/12/21 09:21:24;;;;;;;49.40;24.73;;;;;;;;;;6256038;23;20402;-95
2020/12/21 09:23:50;;;;;;;39.67;23.20;;;;;;;;;;6256212;23;20417;-95
2020/12/21 09:26:17;;;;;;;41.60;24.60;;;;;;;;;;6253182;23;20935;-94
2020/12/21 09:28:44;;;;;;;48.90;25.40;;;;;;;;;;6256268;23;20406;-96
2020/12/21 09:31:12;;;;;;;46.50;24.07;;;;;;;;;;6258673;23;20433;-96
2020/12/21 09:33:39;;;;;;;43.97;23.90;;;;;;;;;;6257126;23;20437;-95
2020/12/21 09:36:05;;;;;;;43.03;25.47;;;;;;;;;;6255833;23;20409;-94
2020/12/21 09:38:31;;;;;;;45.63;25.10;;;;;;;;;;6255938;23;20443;-95
2020/12/21 09:40:57;;;;;;;46.50;25.10;;;;;;;;;;6255561;23;20404;-95
2020/12/21 09:43:23;;;;;;;45.07;25.90;;;;;;;;;;6252756;23;20793;-96
2020/12/21 09:45:50;;;;;;;44.70;21.90;;;;;;;;;;6254778;23;20422;-94
2020/12/21 09:48:16;;;;;;;38.20;21.03;;;;;;;;;;6228352;23;20410;-94
2020/12/21 09:50:42;;;;;;;36.13;19.77;;;;;;;;;;6256549;23;20457;-95
2020/12/21 09:53:08;;;;;;;40.93;19.30;;;;;;;;;;6254972;23;20402;-96
2020/12/21 09:55:34;;;;;;;37.40;19.60;;;;;;;;;;6256109;23;20409;-94
2020/12/21 09:58:00;;;;;;;37.43;19.80;;;;;;;;;;6253148;22;20418;-94
2020/12/21 10:00:28;;;;;;;37.90;22.37;;;;;;;;;;6254102;23;20406;-94
2020/12/21 10:02:55;;;;;;;41.60;25.50;;;;;;;;;;6254508;23;20471;-94
2020/12/21 10:05:21;;;;;;;43.37;30.00;;;;;;;;;;6255185;23;20406;-95
2020/12/21 10:07:47;;;;;;;37.03;23.70;;;;;;;;;;6257063;23;20418;-95
2020/12/21 10:10:13;;;;;;;44.63;30.03;;;;;;;;;;6258480;23;20454;-94
2020/12/21 10:12:39;;;;;;;42.90;25.10;;;;;;;;;;6257301;23;20410;-95
2020/12/21 10:15:05;;;;;;;38.53;19.63;;;;;;;;;;6252852;23;20423;-93
2020/12/21 10:17:31;;;;;;;36.17;19.30;;;;;;;;;;6254694;23;20440;-95
2020/12/21 10:19:58;;;;;;;32.67;23.73;;;;;;;;;;6254758;23;20421;-93
2020/12/21 10:22:24;;;;;;;37.20;23.77;;;;;;;;;;6254529;23;20417;-93
2020/12/21 10:24:50;;;;;;;28.73;19.40;;;;;;;;;;6256026;23;20406;-94
2020/12/21 10:27:16;;;;;;;30.37;16.70;;;;;;;;;;6254441;23;20413;-94
2020/12/21 10:29:42;;;;;;;29.70;17.83;;;;;;;;;;6256773;23;20430;-94
2020/12/21 10:32:08;;;;;;;37.70;17.40;;;;;;;;;;6253717;23;20943;-94
2020/12/21 10:34:34;;;;;;;30.17;18.27;;;;;;;;;;6254416;22;20413;-93
2020/12/21 10:37:01;;;;;;;34.33;19.37;;;;;;;;;;6253941;23;20440;-95
2020/12/21 10:39:27;;;;;;;29.40;15.83;;;;;;;;;;6255650;23;20413;-94
2020/12/21 10:41:53;;;;;;;32.97;18.90;;;;;;;;;;6255437;23;20397;-94
2020/12/21 10:44:19;;;;;;;35.43;20.17;;;;;;;;;;6256416;23;20429;-96
2020/12/21 10:46:45;;;;;;;32.97;18.00;;;;;;;;;;6258716;23;20421;-96
2020/12/21 10:49:12;;;;;;;38.70;20.27;;;;;;;;;;6265241;23;20461;-96
2020/12/21 10:51:38;;;;;;;39.70;22.93;;;;;;;;;;6261818;23;20463;-94
2020/12/21 10:54:04;;;;;;;38.93;20.87;;;;;;;;;;6253887;23;20414;-95
2020/12/21 10:56:30;;;;;;;40.50;22.40;;;;;;;;;;6227748;23;20418;-93
2020/12/21 10:58:57;;;;;;;40.90;22.57;;;;;;;;;;6253813;23;20424;-94
2020/12/21 11:01:23;;;;;;;40.30;24.80;;;;;;;;;;6255582;23;20417;-95
2020/12/21 11:03:49;;;;;;;36.60;22.60;;;;;;;;;;6254561;23;20414;-94
2020/12/21 11:06:19;;;;;;;38.70;23.27;;;;;;;;;;6253160;23;20402;-94
2020/12/21 11:08:45;;;;;;;32.30;20.10;;;;;;;;;;6253876;23;21076;-93
2020/12/21 11:11:12;;;;;;;34.57;20.47;;;;;;;;;;6252677;23;20453;-94
2020/12/21 11:13:41;;;;;;;38.93;21.87;;;;;;;;;;6256352;23;20406;-93
2020/12/21 11:16:08;;;;;;;38.30;22.50;;;;;;;;;;6255326;23;20420;-94
2020/12/21 11:18:34;;;;;;;35.80;22.50;;;;;;;;;;6255532;23;20421;-93
2020/12/21 11:21:00;;;;;;;39.37;22.60;;;;;;;;;;6253922;23;20410;-95
2020/12/21 11:23:26;;;;;;;37.90;23.53;;;;;;;;;;6254267;23;20417;-94
2020/12/21 11:25:53;;;;;;;40.93;23.60;;;;;;;;;;6252403;23;20413;-94
2020/12/21 11:28:20;;;;;;;46.73;25.37;;;;;;;;;;6253465;23;20417;-94
2020/12/21 11:30:47;;;;;;;42.27;23.93;;;;;;;;;;6254095;23;20441;-93
2020/12/21 11:33:14;;;;;;;40.33;23.87;;;;;;;;;;6253249;23;20434;-94
2020/12/21 11:35:40;;;;;;;36.67;22.60;;;;;;;;;;6254254;23;20410;-94
2020/12/21 11:38:06;;;;;;;37.87;21.83;;;;;;;;;;6253563;23;20414;-94
2020/12/21 11:40:33;;;;;;;35.57;22.67;;;;;;;;;;6255649;23;20425;-94
2020/12/21 11:42:59;;;;;;;34.77;20.90;;;;;;;;;;6254929;23;20414;-94
2020/12/21 11:45:26;;;;;;;34.13;20.90;;;;;;;;;;6254519;23;20410;-94
2020/12/21 11:47:52;;;;;;;36.53;22.17;;;;;;;;;;6254862;23;20414;-94
2020/12/21 11:50:18;;;;;;;32.57;20.27;;;;;;;;;;6248066;23;20467;-94
2020/12/21 11:52:44;;;;;;;33.87;22.03;;;;;;;;;;6256955;23;20413;-94
2020/12/21 11:55:10;;;;;;;39.60;24.70;;;;;;;;;;6253717;23;20406;-94
2020/12/21 11:57:36;;;;;;;39.07;25.00;;;;;;;;;;6259178;23;20413;-94
2020/12/21 12:00:04;;;;;;;35.33;24.17;;;;;;;;;;6254893;23;20409;-95
2020/12/21 12:02:31;;;;;;;39.40;28.00;;;;;;;;;;6255869;23;20425;-93
2020/12/21 12:04:57;;;;;;;34.27;25.97;;;;;;;;;;6256584;23;20407;-94
2020/12/21 12:07:23;;;;;;;28.97;19.00;;;;;;;;;;6258712;23;20414;-94
2020/12/21 12:09:49;;;;;;;28.40;19.20;;;;;;;;;;6256809;23;20437;-94
2020/12/21 12:12:20;;;;;;;30.13;19.37;;;;;;;;;;6257363;23;20410;-95
2020/12/21 12:14:46;;;;;;;25.17;17.40;;;;;;;;;;6257501;23;20403;-94
2020/12/21 12:17:12;;;;;;;23.87;15.80;;;;;;;;;;6255590;23;20409;-94
2020/12/21 12:19:39;;;;;;;24.20;15.60;;;;;;;;;;6258213;23;20464;-94
2020/12/21 12:22:07;;;;;;;23.80;15.97;;;;;;;;;;6258721;23;20454;-96
2020/12/21 12:24:34;;;;;;;25.50;16.00;;;;;;;;;;6256663;23;20928;-95
2020/12/21 12:27:00;;;;;;;25.83;15.90;;;;;;;;;;6256716;23;20426;-94
2020/12/21 12:29:28;;;;;;;26.43;14.30;;;;;;;;;;6260301;23;20457;-95
2020/12/21 12:31:54;;;;;;;23.87;15.10;;;;;;;;;;6260205;23;20499;-92
2020/12/21 12:34:20;;;;;;;18.97;12.20;;;;;;;;;;6259365;23;20413;-94
2020/12/21 12:36:48;;;;;;;21.53;12.77;;;;;;;;;;6265262;23;20419;-93
2020/12/21 12:39:14;;;;;;;22.50;13.30;;;;;;;;;;6254714;23;20411;-94
2020/12/21 12:41:41;;;;;;;19.93;14.00;;;;;;;;;;6256341;23;20405;-94
2020/12/21 12:44:07;;;;;;;23.40;14.70;;;;;;;;;;6254138;23;20413;-94
2020/12/21 12:46:34;;;;;;;19.33;13.77;;;;;;;;;;6254535;23;20428;-95
2020/12/21 12:49:01;;;;;;;22.97;13.40;;;;;;;;;;6254720;23;20406;-93
2020/12/21 12:51:27;;;;;;;23.03;14.23;;;;;;;;;;6258204;23;20468;-93
2020/12/21 12:53:54;;;;;;;20.10;12.30;;;;;;;;;;6257964;23;20469;-94
2020/12/21 12:56:21;;;;;;;20.17;13.73;;;;;;;;;;6255699;22;20467;-94
2020/12/21 12:58:48;;;;;;;22.73;15.33;;;;;;;;;;6257299;23;20410;-94
2020/12/21 13:01:14;;;;;;;25.00;14.10;;;;;;;;;;6257339;23;20452;-93
2020/12/21 13:03:40;;;;;;;21.80;13.70;;;;;;;;;;6257110;22;20540;-94
2020/12/21 13:06:07;;;;;;;27.33;16.27;;;;;;;;;;6254113;23;20658;-94
2020/12/21 13:08:33;;;;;;;23.53;15.43;;;;;;;;;;6257043;23;20409;-93
2020/12/21 13:11:00;;;;;;;26.90;15.80;;;;;;;;;;6256167;23;20475;-93
2020/12/21 13:13:26;;;;;;;26.87;18.87;;;;;;;;;;6256362;23;20429;-92
2020/12/21 13:15:52;;;;;;;22.70;16.90;;;;;;;;;;6254493;23;21194;-94
2020/12/21 13:18:18;;;;;;;25.50;18.73;;;;;;;;;;6256043;23;20460;-93
2020/12/21 13:20:44;;;;;;;25.27;15.50;;;;;;;;;;6254088;23;20405;-94
2020/12/21 13:23:10;;;;;;;26.67;16.80;;;;;;;;;;6255947;23;20416;-93
2020/12/21 13:25:36;;;;;;;20.57;13.23;;;;;;;;;;6257843;23;20413;-93
2020/12/21 13:28:03;;;;;;;21.20;14.67;;;;;;;;;;6252942;23;20410;-94
2020/12/21 13:30:29;;;;;;;26.47;16.87;;;;;;;;;;6257044;23;20450;-93
2020/12/21 13:32:55;;;;;;;25.37;16.23;;;;;;;;;;6252059;23;20440;-94
2020/12/21 13:35:21;;;;;;;25.80;16.50;;;;;;;;;;6256528;23;20414;-93
2020/12/21 13:37:47;;;;;;;28.13;18.90;;;;;;;;;;6256036;23;20422;-92
2020/12/21 13:40:17;;;;;;;33.67;23.23;;;;;;;;;;6258962;23;20420;-93
2020/12/21 13:42:43;;;;;;;33.90;21.40;;;;;;;;;;6262017;23;20416;-93
2020/12/21 13:45:10;;;;;;;28.47;19.50;;;;;;;;;;6254592;23;20410;-94
2020/12/21 13:47:36;;;;;;;29.20;21.03;;;;;;;;;;6256525;23;20410;-93
2020/12/21 13:50:03;;;;;;;27.70;16.83;;;;;;;;;;6255711;23;20438;-94
2020/12/21 13:52:29;;;;;;;24.63;15.90;;;;;;;;;;6257013;23;20414;-94
2020/12/21 13:54:55;;;;;;;24.03;15.13;;;;;;;;;;6256370;23;20495;-95
2020/12/21 13:57:21;;;;;;;24.03;16.83;;;;;;;;;;6256972;23;20414;-94
2020/12/21 13:59:47;;;;;;;22.93;15.63;;;;;;;;;;6254434;23;20414;-94
2020/12/21 14:02:13;;;;;;;22.83;14.97;;;;;;;;;;6256128;23;20444;-95
2020/12/21 14:04:39;;;;;;;24.97;15.37;;;;;;;;;;6257207;23;20402;-93
2020/12/21 14:07:05;;;;;;;26.73;15.90;;;;;;;;;;6255933;23;20417;-94
2020/12/21 14:09:32;;;;;;;26.07;15.93;;;;;;;;;;6255453;23;20409;-95
2020/12/21 14:11:58;;;;;;;21.73;15.87;;;;;;;;;;6253897;23;20460;-94